Time;durP1;ratioP1;P1;durP2;ratioP2;P2;SDS_P1;SDS_P2;PMS_P1;PMS_P2;Temp;Humidity;BMP_temperature;BMP_pressure;BME280_temperature;BME280_humidity;BME280_pressure;Samples;Min_cycle;Max_cycle;Signal;HPM_P1;HPM_P2
2024/03/19 00:00:38;;;;;;;32.75;17.95;;;7.80;99.90;;;;;;4988492;28;20046;-84
2024/03/19 00:03:06;;;;;;;28.95;15.75;;;7.90;99.90;;;;;;4976558;28;20475;-84
2024/03/19 00:05:31;;;;;;;30.83;17.25;;;7.90;99.90;;;;;;4976504;28;20022;-84
2024/03/19 00:07:57;;;;;;;30.92;17.73;;;7.90;99.90;;;;;;4975612;28;20038;-84
2024/03/19 00:10:23;;;;;;;34.88;16.60;;;8.00;99.90;;;;;;4970168;28;20034;-84
2024/03/19 00:12:49;;;;;;;30.92;17.77;;;8.00;99.90;;;;;;4972333;28;20026;-84
2024/03/19 00:15:14;;;;;;;36.45;18.73;;;8.10;99.90;;;;;;4975512;28;20037;-84
2024/03/19 00:17:40;;;;;;;37.63;18.80;;;8.10;99.90;;;;;;4972404;28;20019;-84
2024/03/19 00:20:08;;;;;;;40.08;21.05;;;8.10;99.90;;;;;;4967980;28;20509;-84
2024/03/19 00:22:34;;;;;;;39.58;19.30;;;8.20;99.90;;;;;;4976032;28;20039;-85
2024/03/19 00:25:00;;;;;;;42.60;21.20;;;8.20;99.90;;;;;;4975782;28;20026;-84
2024/03/19 00:27:25;;;;;;;41.40;21.70;;;8.30;99.90;;;;;;4974142;28;20031;-84
2024/03/19 00:29:51;;;;;;;40.17;22.60;;;8.30;99.90;;;;;;4972944;28;20042;-84
2024/03/19 00:32:16;;;;;;;45.45;22.38;;;8.30;99.90;;;;;;4975563;28;20049;-84
2024/03/19 00:34:42;;;;;;;38.45;20.00;;;8.40;99.90;;;;;;4976062;28;20046;-84
2024/03/19 00:37:07;;;;;;;44.15;22.02;;;8.40;99.90;;;;;;4975649;28;20546;-84
2024/03/19 00:39:34;;;;;;;39.25;21.35;;;8.40;99.90;;;;;;4972484;28;20041;-84
2024/03/19 00:42:03;;;;;;;44.67;21.45;;;8.40;99.90;;;;;;4968601;28;20023;-84
2024/03/19 00:44:29;;;;;;;44.70;24.25;;;8.40;99.90;;;;;;4969039;28;20133;-84
2024/03/19 00:46:55;;;;;;;42.22;22.67;;;8.50;99.90;;;;;;4971782;28;20158;-85
2024/03/19 00:49:21;;;;;;;48.67;22.23;;;8.50;99.90;;;;;;4956900;28;20428;-85
2024/03/19 00:51:47;;;;;;;44.63;22.15;;;8.50;99.90;;;;;;4971085;28;20027;-85
2024/03/19 00:54:12;;;;;;;41.28;20.95;;;8.40;99.90;;;;;;4975563;28;20391;-85
2024/03/19 00:56:38;;;;;;;39.80;19.45;;;8.50;99.90;;;;;;4975985;28;20161;-85
2024/03/19 00:59:04;;;;;;;46.58;21.60;;;8.50;99.90;;;;;;4974165;28;20043;-85
2024/03/19 01:01:31;;;;;;;44.22;21.92;;;8.50;99.90;;;;;;4974919;28;20038;-85
2024/03/19 01:03:58;;;;;;;41.72;21.52;;;8.50;99.90;;;;;;4975266;28;20072;-84
2024/03/19 01:06:24;;;;;;;40.92;20.50;;;8.50;99.90;;;;;;4975930;28;20038;-85
2024/03/19 01:08:50;;;;;;;43.88;20.52;;;8.50;99.90;;;;;;4972862;28;20439;-85
2024/03/19 01:11:16;;;;;;;41.50;20.58;;;8.50;99.90;;;;;;4968140;28;20542;-84
2024/03/19 01:13:43;;;;;;;45.50;21.10;;;8.60;99.90;;;;;;4973054;28;20038;-85
2024/03/19 01:16:09;;;;;;;45.28;21.13;;;8.50;99.90;;;;;;4975334;28;20478;-84
2024/03/19 01:18:35;;;;;;;42.13;20.75;;;8.60;99.90;;;;;;4992705;28;20042;-85
2024/03/19 01:21:02;;;;;;;38.95;21.23;;;8.60;99.90;;;;;;4968754;28;20489;-85
2024/03/19 01:23:27;;;;;;;45.63;21.30;;;8.60;99.90;;;;;;4974597;28;20061;-84
2024/03/19 01:25:53;;;;;;;39.70;20.02;;;8.60;99.90;;;;;;4975321;28;20529;-85
2024/03/19 01:28:18;;;;;;;42.05;19.80;;;8.60;99.90;;;;;;4975427;28;20053;-85
2024/03/19 01:30:44;;;;;;;40.28;21.42;;;8.60;99.90;;;;;;4972422;28;20046;-85
2024/03/19 01:33:10;;;;;;;38.80;19.13;;;8.60;99.90;;;;;;4975028;28;20117;-85
2024/03/19 01:35:35;;;;;;;39.65;19.65;;;8.70;99.90;;;;;;4975785;28;20050;-85
2024/03/19 01:38:01;;;;;;;39.30;19.75;;;8.70;99.90;;;;;;4975188;28;20031;-84
2024/03/19 01:40:27;;;;;;;44.10;20.98;;;8.70;99.90;;;;;;4975372;28;20084;-84
2024/03/19 01:42:52;;;;;;;41.00;20.90;;;8.70;99.90;;;;;;4977355;28;20057;-85
2024/03/19 01:45:22;;;;;;;45.78;22.05;;;8.80;99.90;;;;;;4978393;28;20461;-84
2024/03/19 01:47:48;;;;;;;39.42;21.35;;;8.70;99.90;;;;;;4977752;28;20538;-85
2024/03/19 01:50:14;;;;;;;40.28;20.30;;;8.80;99.90;;;;;;4978412;28;20081;-85
2024/03/19 01:52:45;;;;;;;39.72;20.27;;;8.80;99.90;;;;;;4995317;28;20050;-84
2024/03/19 01:55:11;;;;;;;34.38;19.52;;;8.80;99.90;;;;;;4978350;28;20026;-85
2024/03/19 01:57:37;;;;;;;36.58;18.55;;;8.80;99.90;;;;;;4978837;28;20061;-85
2024/03/19 02:00:07;;;;;;;37.65;19.48;;;8.90;99.90;;;;;;4978178;28;20054;-85
2024/03/19 02:02:35;;;;;;;34.33;19.23;;;8.90;99.90;;;;;;4978829;28;20483;-85
2024/03/19 02:05:04;;;;;;;35.88;18.20;;;8.90;99.90;;;;;;4978522;28;20125;-85
2024/03/19 02:07:30;;;;;;;37.30;18.63;;;9.00;99.90;;;;;;4967188;28;20373;-85
2024/03/19 02:09:56;;;;;;;33.17;17.98;;;9.00;99.90;;;;;;4958834;28;20038;-85
2024/03/19 02:12:26;;;;;;;40.03;19.48;;;9.00;99.90;;;;;;4959265;28;20053;-84
2024/03/19 02:14:52;;;;;;;34.55;18.52;;;9.10;99.90;;;;;;4970217;28;20077;-85
2024/03/19 02:17:19;;;;;;;32.50;17.17;;;9.10;99.90;;;;;;4974841;28;20030;-84
2024/03/19 02:19:45;;;;;;;34.25;18.38;;;9.10;99.90;;;;;;4967674;28;20030;-84
2024/03/19 02:22:11;;;;;;;30.25;16.92;;;9.20;99.90;;;;;;4988192;28;20104;-84
2024/03/19 02:24:41;;;;;;;32.30;18.60;;;9.20;99.90;;;;;;4959858;28;20082;-84
2024/03/19 02:27:07;;;;;;;37.33;18.85;;;9.20;99.90;;;;;;4977486;28;20418;-84
2024/03/19 02:29:33;;;;;;;42.47;21.10;;;9.20;99.90;;;;;;4995256;28;20044;-84
2024/03/19 02:31:59;;;;;;;36.90;19.65;;;9.20;99.90;;;;;;4977893;28;20115;-84
2024/03/19 02:34:25;;;;;;;37.65;20.08;;;9.30;99.90;;;;;;4977506;28;20034;-84
2024/03/19 02:36:51;;;;;;;35.88;18.52;;;9.30;99.90;;;;;;4977759;28;20061;-84
2024/03/19 02:39:17;;;;;;;38.83;19.17;;;9.30;99.90;;;;;;4978282;28;20057;-84
2024/03/19 02:41:43;;;;;;;39.65;19.90;;;9.40;99.90;;;;;;4978309;28;20022;-84
2024/03/19 02:44:09;;;;;;;40.67;21.27;;;9.40;99.90;;;;;;4978032;28;20042;-85
2024/03/19 02:46:35;;;;;;;43.28;21.65;;;9.40;99.90;;;;;;4977013;28;20454;-84
2024/03/19 02:49:00;;;;;;;41.60;21.77;;;9.40;99.90;;;;;;4977137;28;20028;-84
2024/03/19 02:51:26;;;;;;;43.58;22.55;;;9.40;99.90;;;;;;4977504;28;20129;-84
2024/03/19 02:53:51;;;;;;;42.72;22.45;;;9.40;99.90;;;;;;4977380;28;20026;-85
2024/03/19 02:56:17;;;;;;;43.47;22.77;;;9.40;99.90;;;;;;4967560;28;20509;-84
2024/03/19 02:58:43;;;;;;;46.33;23.15;;;9.50;99.90;;;;;;4977389;28;20030;-84
2024/03/19 03:01:08;;;;;;;48.08;23.92;;;9.50;99.90;;;;;;4977255;28;20037;-84
2024/03/19 03:03:34;;;;;;;47.40;23.80;;;9.50;99.90;;;;;;4994595;28;20039;-84
2024/03/19 03:06:00;;;;;;;45.90;26.45;;;9.50;99.90;;;;;;4977015;28;20117;-84
2024/03/19 03:08:26;;;;;;;56.10;25.80;;;9.50;99.90;;;;;;4976761;28;20471;-84
2024/03/19 03:10:52;;;;;;;52.25;26.17;;;9.50;99.90;;;;;;4976509;28;20503;-85
2024/03/19 03:13:18;;;;;;;45.70;25.55;;;9.50;99.90;;;;;;4975396;28;20137;-83
2024/03/19 03:15:44;;;;;;;48.65;25.48;;;9.60;99.90;;;;;;4972597;28;20125;-84
2024/03/19 03:18:10;;;;;;;47.38;24.38;;;9.60;99.90;;;;;;4968334;28;20022;-84
2024/03/19 03:20:36;;;;;;;46.95;24.73;;;9.60;99.90;;;;;;4971524;28;20041;-84
2024/03/19 03:23:02;;;;;;;46.25;24.67;;;9.70;99.90;;;;;;4975117;28;20073;-84
2024/03/19 03:25:29;;;;;;;50.22;24.73;;;9.70;99.90;;;;;;4974911;28;20089;-84
2024/03/19 03:27:55;;;;;;;50.20;24.30;;;9.70;99.90;;;;;;4974913;28;20427;-84
2024/03/19 03:30:22;;;;;;;42.67;22.92;;;9.70;99.90;;;;;;4993818;28;20127;-84
2024/03/19 03:32:48;;;;;;;43.67;23.45;;;9.70;99.90;;;;;;4994159;28;20018;-84
2024/03/19 03:35:13;;;;;;;40.22;22.42;;;9.70;99.90;;;;;;4994016;28;20041;-84
2024/03/19 03:37:40;;;;;;;40.20;21.48;;;9.80;99.90;;;;;;4976374;28;20022;-84
2024/03/19 03:40:13;;;;;;;40.25;21.75;;;9.80;99.90;;;;;;4972728;28;20026;-84
2024/03/19 03:42:40;;;;;;;39.53;21.92;;;9.80;99.90;;;;;;4968708;28;20116;-83
2024/03/19 03:45:06;;;;;;;45.83;21.63;;;9.80;99.90;;;;;;4976315;28;20030;-84
2024/03/19 03:47:31;;;;;;;41.60;22.15;;;9.80;99.90;;;;;;4984906;28;20026;-85
2024/03/19 03:49:57;;;;;;;41.25;21.15;;;9.90;99.90;;;;;;4970374;28;20061;-84
2024/03/19 03:52:25;;;;;;;41.25;21.88;;;9.90;99.90;;;;;;4960624;28;20030;-84
2024/03/19 03:54:51;;;;;;;37.03;20.80;;;9.90;99.90;;;;;;4976773;28;20022;-84
2024/03/19 03:57:17;;;;;;;43.20;21.10;;;9.90;99.90;;;;;;4993236;28;20081;-84
2024/03/19 03:59:42;;;;;;;43.03;21.02;;;9.90;99.90;;;;;;4975737;28;20518;-84
2024/03/19 04:02:08;;;;;;;38.10;20.95;;;9.90;99.90;;;;;;4976086;28;20178;-84
2024/03/19 04:04:33;;;;;;;39.95;20.92;;;9.90;99.90;;;;;;4975151;28;20474;-83
2024/03/19 04:06:59;;;;;;;41.45;21.63;;;10.00;99.90;;;;;;4974709;28;20026;-84
2024/03/19 04:09:24;;;;;;;34.95;19.73;;;10.00;99.90;;;;;;4976036;28;20089;-84
2024/03/19 04:11:50;;;;;;;38.28;21.95;;;9.90;99.90;;;;;;4973267;28;20383;-84
2024/03/19 04:14:16;;;;;;;34.42;19.13;;;10.00;99.90;;;;;;4975914;28;20026;-84
2024/03/19 04:16:41;;;;;;;39.38;20.33;;;9.90;99.90;;;;;;4974973;28;20026;-83
2024/03/19 04:19:08;;;;;;;38.72;19.67;;;9.90;99.90;;;;;;4973994;28;20022;-84
2024/03/19 04:21:34;;;;;;;40.83;19.98;;;10.00;99.90;;;;;;4975633;28;20026;-84
2024/03/19 04:24:01;;;;;;;38.17;20.20;;;9.90;99.90;;;;;;4975796;28;20113;-84
2024/03/19 04:26:27;;;;;;;41.35;20.60;;;9.90;99.90;;;;;;4975936;28;20026;-84
2024/03/19 04:28:53;;;;;;;37.50;20.85;;;9.90;99.90;;;;;;4974054;28;20774;-84
2024/03/19 04:31:18;;;;;;;32.55;19.70;;;9.90;99.90;;;;;;4975481;28;20030;-84
2024/03/19 04:33:44;;;;;;;35.90;19.80;;;9.90;99.90;;;;;;4975724;28;20053;-84
2024/03/19 04:36:09;;;;;;;34.25;19.70;;;9.90;99.90;;;;;;4975337;28;20030;-84
2024/03/19 04:38:35;;;;;;;34.70;19.80;;;9.90;99.90;;;;;;4992748;28;20027;-84
2024/03/19 04:41:00;;;;;;;42.78;20.15;;;9.90;99.90;;;;;;4974934;28;20026;-84
2024/03/19 04:43:26;;;;;;;35.10;19.55;;;9.90;99.90;;;;;;4960565;28;20442;-84
2024/03/19 04:45:52;;;;;;;40.00;20.08;;;9.90;99.90;;;;;;4956317;28;20026;-84
2024/03/19 04:48:17;;;;;;;34.80;19.45;;;9.80;99.90;;;;;;4956243;28;20395;-83
2024/03/19 04:50:43;;;;;;;38.90;20.90;;;9.90;99.90;;;;;;4965119;28;20035;-84
2024/03/19 04:53:09;;;;;;;38.55;19.92;;;9.90;99.90;;;;;;4975475;28;20062;-83
2024/03/19 04:55:35;;;;;;;39.42;20.50;;;9.80;99.90;;;;;;4974951;28;20478;-84
2024/03/19 04:58:00;;;;;;;37.80;19.85;;;9.90;99.90;;;;;;4974901;28;20026;-83
2024/03/19 05:00:26;;;;;;;34.15;20.33;;;9.90;99.90;;;;;;4975237;28;20069;-83
2024/03/19 05:02:51;;;;;;;36.20;21.05;;;9.80;99.90;;;;;;4975748;28;20223;-84
2024/03/19 05:05:17;;;;;;;34.83;20.20;;;9.90;99.90;;;;;;4974155;28;20022;-84
2024/03/19 05:07:43;;;;;;;41.13;20.77;;;9.80;99.90;;;;;;4979113;28;20447;-83
2024/03/19 05:10:09;;;;;;;32.75;20.05;;;9.80;99.90;;;;;;4972199;28;20458;-83
2024/03/19 05:12:35;;;;;;;41.30;21.00;;;9.80;99.90;;;;;;4983958;28;20031;-83
2024/03/19 05:15:01;;;;;;;33.13;20.08;;;9.80;99.90;;;;;;4975714;28;20371;-84
2024/03/19 05:17:27;;;;;;;41.30;21.30;;;9.90;99.90;;;;;;4979576;28;20029;-84
2024/03/19 05:19:52;;;;;;;37.22;20.80;;;9.80;99.90;;;;;;4996817;28;20037;-83
2024/03/19 05:22:18;;;;;;;39.03;21.75;;;9.80;99.90;;;;;;4996369;28;20058;-84
2024/03/19 05:24:44;;;;;;;41.80;20.90;;;9.90;99.90;;;;;;4979467;28;20039;-84
2024/03/19 05:27:10;;;;;;;41.78;22.15;;;9.80;99.90;;;;;;4975517;28;20407;-84
2024/03/19 05:29:35;;;;;;;40.88;21.35;;;9.80;99.90;;;;;;4978763;28;20038;-84
2024/03/19 05:32:01;;;;;;;42.40;20.60;;;9.80;99.90;;;;;;4969057;28;20036;-84
2024/03/19 05:34:27;;;;;;;34.08;20.65;;;9.80;99.90;;;;;;4959836;28;20031;-84
2024/03/19 05:36:52;;;;;;;36.50;21.10;;;9.80;99.90;;;;;;4968636;28;20026;-84
2024/03/19 05:39:19;;;;;;;31.65;19.42;;;9.80;99.90;;;;;;4975577;28;20034;-84
2024/03/19 05:41:45;;;;;;;39.97;20.80;;;9.80;99.90;;;;;;4980710;28;20034;-84
2024/03/19 05:44:11;;;;;;;39.47;21.45;;;9.80;99.90;;;;;;4974824;28;20495;-84
2024/03/19 05:46:36;;;;;;;37.45;19.60;;;9.90;99.90;;;;;;4969771;28;20053;-84
2024/03/19 05:49:04;;;;;;;39.38;20.35;;;9.80;99.90;;;;;;4994787;28;20042;-84
2024/03/19 05:51:30;;;;;;;43.42;21.23;;;9.80;99.90;;;;;;4972196;28;20036;-85
2024/03/19 05:53:56;;;;;;;45.78;20.52;;;9.80;99.90;;;;;;4982739;28;20054;-85
2024/03/19 05:56:22;;;;;;;40.75;20.30;;;9.80;99.90;;;;;;4964536;28;20058;-85
2024/03/19 05:58:48;;;;;;;37.05;19.98;;;9.90;99.90;;;;;;4978280;28;20105;-85
2024/03/19 06:01:13;;;;;;;37.28;19.98;;;9.80;99.90;;;;;;4968138;28;20031;-85
2024/03/19 06:03:39;;;;;;;37.50;19.63;;;9.90;99.90;;;;;;4963354;28;20109;-85
2024/03/19 06:06:10;;;;;;;37.00;19.38;;;9.90;99.90;;;;;;4963908;28;20023;-84
2024/03/19 06:08:37;;;;;;;41.60;21.45;;;9.90;99.90;;;;;;4969646;28;20129;-84
2024/03/19 06:11:03;;;;;;;30.92;18.27;;;9.90;99.90;;;;;;4978387;28;20049;-84
2024/03/19 06:13:28;;;;;;;35.90;19.77;;;9.90;99.90;;;;;;4973297;28;20117;-85
2024/03/19 06:15:54;;;;;;;40.65;19.42;;;9.90;99.90;;;;;;4977345;28;20043;-84
2024/03/19 06:18:21;;;;;;;30.88;17.63;;;9.90;99.90;;;;;;4975841;28;20030;-84
2024/03/19 06:20:46;;;;;;;39.97;20.05;;;10.00;99.90;;;;;;4960869;28;20467;-85
2024/03/19 06:23:12;;;;;;;37.00;19.40;;;10.00;99.90;;;;;;4970171;28;20145;-85
2024/03/19 06:25:41;;;;;;;36.70;20.35;;;10.10;99.90;;;;;;4958393;28;20034;-83
2024/03/19 06:28:06;;;;;;;34.97;18.75;;;10.10;99.90;;;;;;4959980;28;20495;-84
2024/03/19 06:30:33;;;;;;;37.38;19.38;;;10.10;99.90;;;;;;4978095;28;20042;-83
2024/03/19 06:32:59;;;;;;;36.70;19.88;;;10.10;99.90;;;;;;4977454;28;20383;-84
2024/03/19 06:35:25;;;;;;;34.05;17.30;;;10.10;99.90;;;;;;4978090;28;20100;-83
2024/03/19 06:37:52;;;;;;;37.05;19.13;;;10.20;99.90;;;;;;4977778;28;20402;-83
2024/03/19 06:40:17;;;;;;;32.40;17.70;;;10.20;99.90;;;;;;4995346;28;20092;-83
2024/03/19 06:42:44;;;;;;;38.30;19.00;;;10.20;99.90;;;;;;4978048;28;20022;-83
2024/03/19 06:45:10;;;;;;;36.92;18.48;;;10.30;99.90;;;;;;4977593;28;20148;-83
2024/03/19 06:47:36;;;;;;;33.00;17.42;;;10.20;99.90;;;;;;4994935;28;20507;-83
2024/03/19 06:50:06;;;;;;;36.60;18.60;;;10.30;99.90;;;;;;4976954;28;20507;-83
2024/03/19 06:52:35;;;;;;;37.30;19.42;;;10.30;99.90;;;;;;4973664;28;20029;-84
2024/03/19 06:55:04;;;;;;;35.30;18.25;;;10.30;99.90;;;;;;4977210;28;20125;-84
2024/03/19 06:57:31;;;;;;;34.28;18.67;;;10.30;99.90;;;;;;4982137;28;20049;-84
2024/03/19 06:59:57;;;;;;;32.40;17.50;;;10.30;99.90;;;;;;4958218;28;20349;-84
2024/03/19 07:02:24;;;;;;;31.40;16.52;;;10.40;99.90;;;;;;4975760;28;20026;-84
2024/03/19 07:04:51;;;;;;;28.60;15.60;;;10.40;99.90;;;;;;4972774;28;20027;-84
2024/03/19 07:07:17;;;;;;;32.38;15.80;;;10.50;99.90;;;;;;4977628;28;20019;-84
2024/03/19 07:09:45;;;;;;;27.73;16.58;;;10.50;99.90;;;;;;4977603;28;20049;-84
2024/03/19 07:12:14;;;;;;;35.45;16.35;;;10.50;99.90;;;;;;4973545;28;20031;-85
2024/03/19 07:14:41;;;;;;;25.00;14.90;;;10.60;99.90;;;;;;4985555;28;20037;-84
2024/03/19 07:17:07;;;;;;;30.70;15.40;;;10.60;99.90;;;;;;4977176;28;20019;-85
2024/03/19 07:19:33;;;;;;;30.67;16.00;;;10.60;99.90;;;;;;4973536;28;20082;-85
2024/03/19 07:21:59;;;;;;;28.35;14.65;;;10.60;99.90;;;;;;4968313;28;20027;-85
2024/03/19 07:24:25;;;;;;;30.58;14.20;;;10.60;99.90;;;;;;4959906;28;20034;-84
2024/03/19 07:26:51;;;;;;;28.63;15.48;;;10.70;99.90;;;;;;4975408;28;20033;-84
2024/03/19 07:29:17;;;;;;;21.65;13.10;;;10.70;99.90;;;;;;4990058;28;20046;-83
2024/03/19 07:31:43;;;;;;;30.15;14.63;;;10.70;99.90;;;;;;4970077;28;20096;-85
2024/03/19 07:34:09;;;;;;;24.88;13.20;;;10.80;99.90;;;;;;4968637;28;20114;-85
2024/03/19 07:36:36;;;;;;;29.30;13.70;;;10.80;99.90;;;;;;4968937;28;20123;-85
2024/03/19 07:39:04;;;;;;;25.48;13.48;;;10.90;99.90;;;;;;4970089;28;20088;-85
2024/03/19 07:41:30;;;;;;;21.92;12.48;;;10.90;99.90;;;;;;4972985;28;20034;-85
2024/03/19 07:43:56;;;;;;;27.40;13.88;;;10.90;99.90;;;;;;4975457;28;20036;-85
2024/03/19 07:46:22;;;;;;;25.50;13.98;;;11.00;99.90;;;;;;4977078;28;20038;-85
2024/03/19 07:48:47;;;;;;;21.88;12.85;;;10.90;99.90;;;;;;4977064;28;20026;-85
2024/03/19 07:51:14;;;;;;;25.50;13.52;;;11.00;99.90;;;;;;4977428;28;20033;-85
2024/03/19 07:53:40;;;;;;;25.92;12.77;;;11.00;99.90;;;;;;4976935;28;20025;-85
2024/03/19 07:56:05;;;;;;;22.85;13.10;;;11.10;99.90;;;;;;4977155;28;20031;-84
2024/03/19 07:58:31;;;;;;;26.52;13.27;;;11.10;99.90;;;;;;4964623;28;20018;-85
2024/03/19 08:00:57;;;;;;;26.20;13.50;;;11.20;99.90;;;;;;4971305;28;20085;-84
2024/03/19 08:03:22;;;;;;;25.25;12.48;;;11.20;99.90;;;;;;4958796;28;20031;-83
2024/03/19 08:05:57;;;;;;;22.98;12.68;;;11.30;99.90;;;;;;4984368;28;20471;-84
2024/03/19 08:08:22;;;;;;;27.95;13.98;;;11.40;99.90;;;;;;4974048;28;20031;-84
2024/03/19 08:10:48;;;;;;;24.20;12.50;;;11.50;99.90;;;;;;4992048;28;20034;-84
2024/03/19 08:13:14;;;;;;;30.80;13.45;;;11.60;99.90;;;;;;4974297;28;20537;-84
2024/03/19 08:15:39;;;;;;;23.33;12.85;;;11.80;99.90;;;;;;4967161;28;20038;-84
2024/03/19 08:18:08;;;;;;;24.75;12.10;;;12.00;99.90;;;;;;4971389;28;20022;-85
2024/03/19 08:20:35;;;;;;;38.35;14.02;;;12.10;99.90;;;;;;4979803;28;20034;-85
2024/03/19 08:23:02;;;;;;;19.75;12.25;;;12.20;99.90;;;;;;4978605;28;20058;-84
2024/03/19 08:25:27;;;;;;;21.73;10.52;;;12.20;99.90;;;;;;4966683;28;20034;-85
2024/03/19 08:27:53;;;;;;;19.27;10.73;;;12.30;99.90;;;;;;4972891;28;20022;-82
2024/03/19 08:30:21;;;;;;;20.52;10.82;;;12.40;99.90;;;;;;4975408;28;20040;-83
2024/03/19 08:32:47;;;;;;;18.67;10.82;;;12.50;99.90;;;;;;4970168;28;20113;-83
2024/03/19 08:35:14;;;;;;;22.65;10.27;;;12.60;99.90;;;;;;4988524;28;20077;-83
2024/03/19 08:37:40;;;;;;;19.17;10.50;;;12.80;99.90;;;;;;4975448;28;20181;-83
2024/03/19 08:40:07;;;;;;;19.88;11.45;;;12.90;99.90;;;;;;4973730;28;20092;-83
2024/03/19 08:42:34;;;;;;;18.38;10.05;;;13.00;99.90;;;;;;4969869;28;20038;-83
2024/03/19 08:45:00;;;;;;;19.90;10.75;;;13.20;99.90;;;;;;4974461;28;20418;-83
2024/03/19 08:47:26;;;;;;;17.90;9.90;;;13.20;99.90;;;;;;4984622;28;20410;-83
2024/03/19 08:49:52;;;;;;;17.65;10.32;;;13.20;99.90;;;;;;4965284;28;20027;-84
2024/03/19 08:52:17;;;;;;;19.27;9.10;;;13.30;99.90;;;;;;4972596;28;20018;-83
2024/03/19 08:54:43;;;;;;;14.73;8.68;;;13.30;99.90;;;;;;4976032;28;20049;-83
2024/03/19 08:57:11;;;;;;;19.50;8.98;;;13.40;99.90;;;;;;4975072;28;20026;-83
2024/03/19 08:59:37;;;;;;;16.00;8.60;;;13.40;99.90;;;;;;4975429;28;20046;-83
2024/03/19 09:02:07;;;;;;;15.90;8.60;;;13.40;99.90;;;;;;4972285;28;20026;-89
2024/03/19 09:04:37;;;;;;;15.75;9.18;;;13.40;99.90;;;;;;4970332;28;20409;-88
2024/03/19 09:07:03;;;;;;;16.30;8.75;;;13.50;99.90;;;;;;4974797;28;20058;-89
2024/03/19 09:09:29;;;;;;;15.65;8.15;;;13.60;99.90;;;;;;4976098;28;20041;-84
2024/03/19 09:11:55;;;;;;;15.70;6.70;;;13.70;99.90;;;;;;4970687;28;20479;-84
2024/03/19 09:14:20;;;;;;;11.60;6.15;;;13.70;99.90;;;;;;4978115;28;20376;-84
2024/03/19 09:16:46;;;;;;;15.30;6.20;;;13.60;99.90;;;;;;4975916;28;20118;-84
2024/03/19 09:19:12;;;;;;;13.93;5.88;;;13.60;99.90;;;;;;4975841;28;20023;-84
2024/03/19 09:21:38;;;;;;;9.80;5.40;;;13.60;99.90;;;;;;4962842;28;20023;-83
2024/03/19 09:24:03;;;;;;;9.05;4.53;;;13.70;99.90;;;;;;4979501;28;20050;-84
2024/03/19 09:26:29;;;;;;;14.55;5.00;;;13.80;99.90;;;;;;4971477;28;20038;-84
2024/03/19 09:28:56;;;;;;;9.15;4.13;;;13.80;99.90;;;;;;4975128;28;20037;-83
2024/03/19 09:31:22;;;;;;;8.48;3.83;;;13.90;99.90;;;;;;4975335;28;20479;-83
2024/03/19 09:33:48;;;;;;;12.70;4.90;;;13.90;99.90;;;;;;4974760;28;20069;-85
2024/03/19 09:36:13;;;;;;;8.27;4.20;;;14.00;99.90;;;;;;4969111;28;20038;-84
2024/03/19 09:38:39;;;;;;;8.07;3.78;;;14.20;99.90;;;;;;4984427;28;20037;-84
2024/03/19 09:41:05;;;;;;;9.50;3.72;;;14.40;99.90;;;;;;4982361;28;20095;-85
2024/03/19 09:43:36;;;;;;;8.80;3.70;;;14.70;99.90;;;;;;4968623;28;20104;-84
2024/03/19 09:46:06;;;;;;;11.23;3.90;;;14.80;99.90;;;;;;4972620;28;20033;-84
2024/03/19 09:48:31;;;;;;;13.25;4.63;;;14.90;99.90;;;;;;4969731;28;20032;-85
2024/03/19 09:51:01;;;;;;;13.57;3.80;;;15.00;99.90;;;;;;4970686;28;20490;-84
2024/03/19 09:53:29;;;;;;;9.13;3.55;;;15.10;99.90;;;;;;4981537;28;20030;-84
2024/03/19 09:55:55;;;;;;;10.20;4.35;;;15.30;99.90;;;;;;4965693;28;20027;-84
2024/03/19 09:58:22;;;;;;;10.38;3.97;;;15.40;99.90;;;;;;4969325;28;20073;-84
2024/03/19 10:00:51;;;;;;;13.00;3.28;;;15.50;99.90;;;;;;4969224;28;20042;-84
2024/03/19 10:03:17;;;;;;;7.80;3.25;;;15.50;99.90;;;;;;4972674;28;20474;-84
2024/03/19 10:05:42;;;;;;;6.78;2.67;;;15.40;99.90;;;;;;4970041;28;20035;-83
2024/03/19 10:08:12;;;;;;;6.50;2.75;;;15.50;99.90;;;;;;4970942;28;20022;-84
2024/03/19 10:10:38;;;;;;;9.18;2.40;;;15.50;99.90;;;;;;4976837;28;20042;-83
2024/03/19 10:13:04;;;;;;;11.05;2.90;;;15.50;99.90;;;;;;4977835;28;20033;-84
2024/03/19 10:15:30;;;;;;;8.43;2.83;;;15.60;99.90;;;;;;4974751;28;20022;-84
2024/03/19 10:17:58;;;;;;;8.35;1.77;;;15.60;99.90;;;;;;4974217;28;20558;-83
2024/03/19 10:20:27;;;;;;;7.40;1.88;;;15.70;99.90;;;;;;4974076;28;20038;-83
2024/03/19 10:22:53;;;;;;;9.43;2.38;;;15.70;99.90;;;;;;4958428;28;20050;-83
2024/03/19 10:25:18;;;;;;;8.60;1.40;;;15.80;99.90;;;;;;4963469;28;20030;-84
2024/03/19 10:27:45;;;;;;;6.05;1.80;;;15.80;99.90;;;;;;4971443;28;20035;-83
2024/03/19 10:30:15;;;;;;;8.32;1.42;;;15.90;99.90;;;;;;4971041;28;20109;-84
2024/03/19 10:32:42;;;;;;;7.53;3.00;;;15.80;99.90;;;;;;4960797;28;20026;-84
2024/03/19 10:35:19;;;;;;;8.02;1.90;;;15.80;99.90;;;;;;4968152;28;20030;-84
2024/03/19 10:37:48;;;;;;;7.90;2.30;;;15.70;99.90;;;;;;4968299;28;20018;-84
2024/03/19 10:40:15;;;;;;;5.35;1.83;;;15.60;99.90;;;;;;4975388;28;20026;-84
2024/03/19 10:42:42;;;;;;;9.98;2.58;;;15.60;99.90;;;;;;4974606;28;20027;-84
2024/03/19 10:45:18;;;;;;;5.03;1.77;;;15.60;99.90;;;;;;4977883;28;20023;-84
2024/03/19 10:47:45;;;;;;;6.97;2.70;;;15.60;99.90;;;;;;4971167;28;20023;-84
2024/03/19 10:50:14;;;;;;;7.25;2.75;;;15.60;99.90;;;;;;4971133;28;20069;-85
2024/03/19 10:52:42;;;;;;;9.15;3.25;;;15.70;99.90;;;;;;4965534;28;20479;-85
2024/03/19 10:55:15;;;;;;;7.93;3.15;;;15.60;99.90;;;;;;4972749;28;20023;-85
2024/03/19 10:57:41;;;;;;;;;;;15.60;99.90;;;;;;4977516;28;20023;-84
2024/03/19 11:00:27;;;;;;;7.55;3.20;;;15.60;99.90;;;;;;4971357;28;19918;-85
2024/03/19 11:03:04;;;;;;;7.70;3.85;;;15.70;99.90;;;;;;4977005;28;20033;-85
2024/03/19 11:05:31;;;;;;;7.05;3.25;;;15.90;99.90;;;;;;4977825;28;20030;-85
2024/03/19 11:07:57;;;;;;;8.55;3.42;;;16.00;99.90;;;;;;4977436;28;20046;-84
2024/03/19 11:10:32;;;;;;;8.77;2.90;;;16.20;99.90;;;;;;4974850;28;20499;-85
2024/03/19 11:13:03;;;;;;;8.57;2.58;;;16.30;99.90;;;;;;4974367;28;20019;-84
2024/03/19 11:15:32;;;;;;;7.63;2.53;;;16.50;99.90;;;;;;4973968;28;20096;-85
2024/03/19 11:18:03;;;;;;;9.48;2.10;;;16.50;99.90;;;;;;4968155;28;20081;-85
2024/03/19 11:20:30;;;;;;;8.75;2.85;;;16.60;99.90;;;;;;4972682;28;20023;-84
2024/03/19 11:22:56;;;;;;;7.95;1.83;;;16.70;99.90;;;;;;4972544;28;20387;-84
2024/03/19 11:25:22;;;;;;;6.13;1.70;;;16.80;99.90;;;;;;4976350;28;20101;-84
2024/03/19 11:27:49;;;;;;;10.80;2.00;;;16.90;99.90;;;;;;4993155;28;20030;-84
2024/03/19 11:30:16;;;;;;;8.88;2.53;;;17.00;99.90;;;;;;4983491;28;20046;-84
2024/03/19 11:32:42;;;;;;;7.60;1.70;;;17.00;99.90;;;;;;4962053;28;20030;-84
2024/03/19 11:35:21;;;;;;;11.85;2.80;;;16.90;99.90;;;;;;4975668;28;20060;-84
2024/03/19 11:37:48;;;;;;;6.00;1.45;;;17.10;99.90;;;;;;4976890;28;20069;-84
2024/03/19 11:40:14;;;;;;;7.03;1.98;;;17.00;99.90;;;;;;4976351;28;20034;-84
2024/03/19 11:42:39;;;;;;;8.00;1.98;;;17.10;99.90;;;;;;4975683;28;20035;-84
2024/03/19 11:45:05;;;;;;;7.93;2.15;;;17.10;99.90;;;;;;4972629;28;20033;-84
2024/03/19 11:47:32;;;;;;;8.05;2.10;;;17.10;99.90;;;;;;4987857;28;20045;-84
2024/03/19 11:49:58;;;;;;;8.15;2.40;;;17.10;99.90;;;;;;4974543;28;20039;-84
2024/03/19 11:52:23;;;;;;;5.68;1.67;;;17.10;99.90;;;;;;4974404;28;20034;-84
2024/03/19 11:54:49;;;;;;;4.80;1.17;;;17.10;99.90;;;;;;4973427;28;20196;-87
2024/03/19 11:57:16;;;;;;;9.40;1.35;;;17.10;99.90;;;;;;4971784;28;20136;-87
2024/03/19 11:59:41;;;;;;;3.67;1.15;;;17.20;99.90;;;;;;4974921;28;20050;-88
2024/03/19 12:02:08;;;;;;;5.28;1.20;;;17.40;99.90;;;;;;4958638;28;20034;-86
2024/03/19 12:04:35;;;;;;;6.80;1.73;;;17.50;99.90;;;;;;4972625;28;20038;-88
2024/03/19 12:07:01;;;;;;;7.82;1.77;;;17.50;99.90;;;;;;4969795;28;20501;-87
2024/03/19 12:09:27;;;;;;;6.25;1.88;;;17.60;99.90;;;;;;4973789;28;20121;-87
2024/03/19 12:11:54;;;;;;;4.00;1.10;;;17.70;99.90;;;;;;4991327;28;20033;-89
2024/03/19 12:14:21;;;;;;;6.10;1.25;;;17.80;99.90;;;;;;4979799;28;20054;-88
2024/03/19 12:16:48;;;;;;;5.28;0.82;;;17.90;99.90;;;;;;4969781;28;20084;-89
2024/03/19 12:19:16;;;;;;;5.63;0.80;;;17.90;99.90;;;;;;4965738;28;20026;-89
2024/03/19 12:21:44;;;;;;;9.25;0.80;;;17.80;99.90;;;;;;4970211;28;20049;-89
2024/03/19 12:24:14;;;;;;;6.30;0.80;;;17.80;99.90;;;;;;4975809;28;20478;-88
2024/03/19 12:26:46;;;;;;;4.82;0.75;;;17.80;99.90;;;;;;4975982;28;20034;-88
2024/03/19 12:29:17;;;;;;;4.47;0.88;;;17.80;99.90;;;;;;4971967;28;20483;-88
2024/03/19 12:31:49;;;;;;;7.22;0.80;;;17.80;99.90;;;;;;4966253;28;20129;-82
2024/03/19 12:37:16;;;;;;;5.43;0.60;;;17.80;99.90;;;;;;4955621;28;20400;-83